Terminal Aerodrome Forecast
Issued by NWS

Home | Current Version | Previous Version | Text Only | Print | Product List | Glossary On
Versions: 1 2 3 4 5 6 7 8 9 10 11 12 13 14 15 16 17 18 19 20 21 22 23 24
000
FTUS45 KLKN 262320
TAFEKO
TAF
KEKO 262320Z 2700/2724 07005KT P6SM SCT200
     FM270600 VRB06KT P6SM SCT100 BKN150
     FM271200 17008KT P6SM VCSH SCT050 BKN100
     FM271800 22008KT P6SM VCSH SCT020 OVC035=

USA.gov is the U.S. government's official web portal to all federal, state and local government web resources and services.